x

East Dellwood (46207) Wave Buoy

3:00pm - Sat 1st Aug 2015 All times are PDT. -7 hours from GMT.

  • Sig Wave height 3.6ft
  • Peak Period 14s
  • Wind
    13mph, 18mph gusts
  • Sea Temp 64°f
  • Air Temp 62°f
  • Sea Pressure 1021.1mb
  • East Dellwood
  • East Dellwood

More Historic Weather Station data

Upgrade to MSW Pro to gain access to the past 30 days of data for over 8000 Wavebouys and Weather Stations around the globe.

Join Pro

Comparision Forecast

View Surf forecast
   
Sat 08/01 3:00pm 3.5ft 14s 13 18 mph 1021.1mb 64f 62f
2:00pm 3.5ft 14s 16 18 mph 1020.9mb 64f 62f
1:00pm 3.5ft 14s 16 18 mph 1020.8mb 64f 62f
12:00pm 3.5ft 14s 16 18 mph 1021mb 64f 62f
11:00am 3.5ft 14s 13 18 mph 1020.9mb 64f 62f
10:00am 3.5ft 15s 11 16 mph 1021.2mb 64f 62f
9:00am 3.5ft 15s 11 13 mph 1021.3mb 64f 61f
8:00am 3.5ft 14s 13 16 mph 1021.4mb 64f 61f
7:00am 4ft 14s 11 13 mph 1021.2mb 64f 61f
6:00am 4ft 14s 18 22 mph 1020.5mb 64f 62f
5:00am 4ft 14s 16 22 mph 1020.6mb 64f 62f
4:00am 4ft 15s 13 16 mph 1020.6mb 64f 62f
3:00am 4ft 15s 9 11 mph 1020.7mb 64f 63f
2:00am 4ft 8s 11 13 mph 1021mb 64f 61f
1:00am 4ft 15s 11 13 mph 1020.9mb 64f 63f
12:00am 4.5ft 15s 7 9 mph 1021.2mb 64f 62f
Fri 07/31 11:00pm 4ft 15s 9 11 mph 1021.4mb 64f 64f
10:00pm 3.5ft 15s 9 11 mph 1021.5mb 64f 64f
9:00pm 4ft 14s 9 11 mph 1021.3mb 64f 63f
8:00pm 3.5ft 15s 11 13 mph 1021.6mb 64f 64f
7:00pm 4ft 15s 11 13 mph 1021.9mb 64f 64f
6:00pm 4ft 15s 11 13 mph 1022.3mb 64f 64f
5:00pm 4ft 15s 11 13 mph 1022.4mb 65f 64f
4:00pm 4ft 15s 7 9 mph 1022.8mb 64f 64f
3:00pm 4ft 15s 11 13 mph 1023mb 64f 64f
2:00pm 3.5ft 15s 11 13 mph 1022.9mb 64f 63f
1:00pm 3.5ft 15s 11 13 mph 1022.9mb 64f 64f
12:00pm 4ft 15s 11 13 mph 1022.9mb 64f 63f
11:00am 3.5ft 15s 9 11 mph 1022.9mb 64f 63f
10:00am 4ft 15s 9 11 mph 1022.9mb 63f 63f
9:00am 3.5ft 15s 9 11 mph 1022.8mb 63f 63f
8:00am 3.5ft 16s 7 11 mph 1022.7mb 63f 63f
7:00am 3.5ft 15s 9 11 mph 1022.5mb 63f 63f
6:00am 4.5ft 15s 11
mph
1022.3mb 63f 63f
5:00am 4ft 15s 11
mph
1022.4mb 63f 63f
4:00am 4ft 14s 9 11 mph 1022.3mb 63f 63f
3:00am 4ft 16s 4 9 mph 1022.1mb 63f 63f
2:00am 4ft 16s 9 11 mph 1022.2mb 63f 62f
1:00am 3.5ft 16s 9 11 mph 1022.2mb 63f 62f
12:00am 4ft 15s 11 13 mph 1022.3mb 63f 62f
Thu 07/30 11:00pm 3.5ft 15s 11 13 mph 1022.5mb 64f 62f
10:00pm 3.5ft 16s 13 16 mph 1022.6mb 64f 62f
9:00pm 3.5ft 16s 13 18 mph 1022.4mb 64f 62f
8:00pm 3.5ft 16s 13 16 mph 1022.5mb 64f 63f
7:00pm 3.5ft 15s 13 18 mph 1023mb 64f 63f
6:00pm 4ft 15s 11 13 mph 1023.3mb 64f 63f
5:00pm 3.5ft 16s 9 11 mph 1023.4mb 64f 62f
4:00pm 3.5ft 16s 11 13 mph 1023.7mb 64f 62f
3:00pm 4ft 15s 11 13 mph 1024mb 64f 62f
2:00pm 4ft 16s 11 13 mph 1023.9mb 64f 62f
1:00pm 4ft 16s 11 13 mph 1023.9mb 64f 62f
12:00pm 4ft 16s 11 13 mph 1024mb 64f 61f
11:00am 4.5ft 15s 11 13 mph 1023.9mb 63f 61f
10:00am 4ft 16s 9 11 mph 1023.7mb 63f 61f
9:00am 4ft 16s 9 13 mph 1023.8mb 63f 61f
8:00am 4.5ft 16s 11
mph
1023.7mb 63f 61f
7:00am 4.5ft 16s 11 13 mph 1023.7mb 63f 61f
6:00am 4.5ft 16s 9 11 mph 1023.5mb 63f 61f
5:00am 4ft 16s 9 11 mph 1023.4mb 63f 61f
4:00am 4.5ft 16s 9 11 mph 1023.6mb 63f 61f
3:00am 4.5ft 16s 9 11 mph 1023.6mb 63f 61f
2:00am 5ft 16s 7 9 mph 1023.5mb 63f 61f
1:00am 4.5ft 16s 9 11 mph 1023.6mb 63f 61f
12:00am 4.5ft 17s 9 11 mph 1023.6mb 64f 61f
Wed 07/29 11:00pm 4.5ft 16s 9 11 mph 1023.6mb 64f 62f
10:00pm 5ft 17s 4 9 mph 1023.8mb 63f 62f
9:00pm 4.5ft 16s 9 11 mph 1023.9mb 64f 62f
8:00pm 4.5ft 16s 7 9 mph 1024.2mb 65f 62f
7:00pm 4.5ft 17s 4 7 mph 1024.5mb 66f 62f
6:00pm 4.5ft 17s 2 4 mph 1024.9mb 66f 63f
5:00pm 5ft 17s  -  2 mph 1025.3mb 65f 62f
4:00pm 5ft 17s 2 4 mph 1025.6mb 65f 62f
3:00pm 5ft 8s 2 4 mph 1025.7mb 65f 62f
2:00pm 5.5ft 17s  -  4 mph 1025.7mb 64f 62f
1:00pm 5ft 17s 2 4 mph 1025.6mb 64f 62f
12:00pm 5ft 17s  -  2 mph 1025.2mb 64f 61f
11:00am 5ft 17s  -  mph 1025.1mb 63f 62f
10:00am 5.5ft 9s  -  mph 1025.1mb 63f 62f
8:00am 5.5ft 10s 2 4 mph 1024.9mb 62f 61f
7:00am 5.5ft 17s 4 7 mph 1024.7mb 62f 60f
6:00am 5ft 10s 7 9 mph 1024.6mb 62f 61f
5:00am 5.5ft 18s 9 11 mph 1024.6mb 62f 61f
4:00am 5.5ft 10s 4 7 mph 1024.7mb 62f 61f
3:00am 6ft 18s 2 4 mph 1024.4mb 62f 61f
2:00am 6ft 10s 7 9 mph 1024.5mb 62f 61f
1:00am 6ft 18s 7 11 mph 1024.4mb 62f 61f
12:00am 6ft 18s 9 11 mph 1024.3mb 62f 60f